sensor_id;sensor_type;location;lat;lon;timestamp;P1;durP1;ratioP1;P2;durP2;ratioP2
80213;SDS011;69531;37.974;23.708;2023-05-16T00:00:13;11.70;;;6.70;;
80213;SDS011;69531;37.974;23.708;2023-05-16T00:02:39;16.75;;;6.75;;
80213;SDS011;69531;37.974;23.708;2023-05-16T00:05:06;13.55;;;6.70;;
80213;SDS011;69531;37.974;23.708;2023-05-16T00:07:32;13.77;;;7.75;;
80213;SDS011;69531;37.974;23.708;2023-05-16T00:09:58;11.15;;;6.47;;
80213;SDS011;69531;37.974;23.708;2023-05-16T00:12:25;11.52;;;6.63;;
80213;SDS011;69531;37.974;23.708;2023-05-16T00:14:52;13.63;;;7.13;;
80213;SDS011;69531;37.974;23.708;2023-05-16T00:17:18;19.70;;;7.43;;
80213;SDS011;69531;37.974;23.708;2023-05-16T00:19:45;15.85;;;7.55;;
80213;SDS011;69531;37.974;23.708;2023-05-16T00:22:14;17.70;;;7.90;;
80213;SDS011;69531;37.974;23.708;2023-05-16T00:24:40;16.85;;;7.40;;
80213;SDS011;69531;37.974;23.708;2023-05-16T00:27:06;18.15;;;8.02;;
80213;SDS011;69531;37.974;23.708;2023-05-16T00:29:33;15.40;;;8.05;;
80213;SDS011;69531;37.974;23.708;2023-05-16T00:31:59;19.80;;;7.85;;
80213;SDS011;69531;37.974;23.708;2023-05-16T00:34:25;13.50;;;7.70;;
80213;SDS011;69531;37.974;23.708;2023-05-16T00:36:51;15.45;;;7.57;;
80213;SDS011;69531;37.974;23.708;2023-05-16T00:39:17;13.30;;;7.93;;
80213;SDS011;69531;37.974;23.708;2023-05-16T00:41:43;17.63;;;8.48;;
80213;SDS011;69531;37.974;23.708;2023-05-16T00:44:10;16.63;;;7.95;;
80213;SDS011;69531;37.974;23.708;2023-05-16T00:46:36;19.73;;;7.55;;
80213;SDS011;69531;37.974;23.708;2023-05-16T00:49:01;14.98;;;8.38;;
80213;SDS011;69531;37.974;23.708;2023-05-16T00:51:27;19.60;;;8.05;;
80213;SDS011;69531;37.974;23.708;2023-05-16T00:53:54;14.73;;;7.85;;
80213;SDS011;69531;37.974;23.708;2023-05-16T00:56:21;17.35;;;8.38;;
80213;SDS011;69531;37.974;23.708;2023-05-16T00:58:47;17.83;;;7.78;;
80213;SDS011;69531;37.974;23.708;2023-05-16T01:01:14;13.25;;;7.55;;
80213;SDS011;69531;37.974;23.708;2023-05-16T01:03:41;17.92;;;7.78;;
80213;SDS011;69531;37.974;23.708;2023-05-16T01:06:09;14.10;;;7.80;;
80213;SDS011;69531;37.974;23.708;2023-05-16T01:08:36;17.30;;;8.02;;
80213;SDS011;69531;37.974;23.708;2023-05-16T01:18:41;14.45;;;7.25;;
80213;SDS011;69531;37.974;23.708;2023-05-16T01:21:22;16.65;;;7.85;;
80213;SDS011;69531;37.974;23.708;2023-05-16T01:24:03;15.10;;;7.22;;
80213;SDS011;69531;37.974;23.708;2023-05-16T01:26:38;13.00;;;6.82;;
80213;SDS011;69531;37.974;23.708;2023-05-16T01:29:05;13.75;;;6.88;;
80213;SDS011;69531;37.974;23.708;2023-05-16T01:31:32;12.57;;;6.63;;
80213;SDS011;69531;37.974;23.708;2023-05-16T01:33:57;11.63;;;6.60;;
80213;SDS011;69531;37.974;23.708;2023-05-16T01:36:32;14.07;;;6.55;;
80213;SDS011;69531;37.974;23.708;2023-05-16T01:39:11;15.32;;;7.32;;
80213;SDS011;69531;37.974;23.708;2023-05-16T01:44:44;14.43;;;6.43;;
80213;SDS011;69531;37.974;23.708;2023-05-16T01:47:13;16.40;;;6.43;;
80213;SDS011;69531;37.974;23.708;2023-05-16T01:52:27;14.57;;;6.85;;
80213;SDS011;69531;37.974;23.708;2023-05-16T01:55:05;12.30;;;6.22;;
80213;SDS011;69531;37.974;23.708;2023-05-16T01:57:36;16.35;;;6.88;;
80213;SDS011;69531;37.974;23.708;2023-05-16T02:00:04;15.32;;;6.90;;
80213;SDS011;69531;37.974;23.708;2023-05-16T02:02:30;13.77;;;6.72;;
80213;SDS011;69531;37.974;23.708;2023-05-16T02:04:56;13.75;;;6.22;;
80213;SDS011;69531;37.974;23.708;2023-05-16T02:07:21;13.77;;;6.50;;
80213;SDS011;69531;37.974;23.708;2023-05-16T02:09:47;14.88;;;6.38;;
80213;SDS011;69531;37.974;23.708;2023-05-16T02:12:13;12.23;;;6.00;;
80213;SDS011;69531;37.974;23.708;2023-05-16T02:14:40;9.45;;;5.30;;
80213;SDS011;69531;37.974;23.708;2023-05-16T02:17:06;12.65;;;5.80;;
80213;SDS011;69531;37.974;23.708;2023-05-16T02:19:31;13.57;;;6.30;;
80213;SDS011;69531;37.974;23.708;2023-05-16T02:21:57;12.82;;;6.32;;
80213;SDS011;69531;37.974;23.708;2023-05-16T02:24:23;12.23;;;6.05;;
80213;SDS011;69531;37.974;23.708;2023-05-16T02:26:48;11.80;;;5.95;;
80213;SDS011;69531;37.974;23.708;2023-05-16T02:29:14;11.20;;;5.40;;
80213;SDS011;69531;37.974;23.708;2023-05-16T02:31:40;13.50;;;5.80;;
80213;SDS011;69531;37.974;23.708;2023-05-16T02:34:06;15.30;;;6.35;;
80213;SDS011;69531;37.974;23.708;2023-05-16T02:36:32;13.45;;;6.43;;
80213;SDS011;69531;37.974;23.708;2023-05-16T02:39:00;15.77;;;6.10;;
80213;SDS011;69531;37.974;23.708;2023-05-16T02:41:26;18.30;;;6.20;;
80213;SDS011;69531;37.974;23.708;2023-05-16T02:43:51;14.15;;;5.95;;
80213;SDS011;69531;37.974;23.708;2023-05-16T02:48:49;13.13;;;5.72;;
80213;SDS011;69531;37.974;23.708;2023-05-16T02:51:16;10.40;;;5.57;;
80213;SDS011;69531;37.974;23.708;2023-05-16T02:53:42;12.30;;;5.97;;
80213;SDS011;69531;37.974;23.708;2023-05-16T02:56:07;13.80;;;6.28;;
80213;SDS011;69531;37.974;23.708;2023-05-16T02:58:34;15.23;;;6.00;;
80213;SDS011;69531;37.974;23.708;2023-05-16T03:01:00;12.05;;;5.15;;
80213;SDS011;69531;37.974;23.708;2023-05-16T03:03:25;13.40;;;5.85;;
80213;SDS011;69531;37.974;23.708;2023-05-16T03:05:51;16.42;;;5.75;;
80213;SDS011;69531;37.974;23.708;2023-05-16T03:08:17;12.25;;;5.82;;
80213;SDS011;69531;37.974;23.708;2023-05-16T03:10:43;12.30;;;5.90;;
80213;SDS011;69531;37.974;23.708;2023-05-16T03:13:08;13.60;;;5.70;;
80213;SDS011;69531;37.974;23.708;2023-05-16T03:15:34;11.88;;;5.45;;
80213;SDS011;69531;37.974;23.708;2023-05-16T03:18:00;13.07;;;6.15;;
80213;SDS011;69531;37.974;23.708;2023-05-16T03:20:25;14.38;;;6.03;;
80213;SDS011;69531;37.974;23.708;2023-05-16T03:22:51;13.10;;;5.95;;
80213;SDS011;69531;37.974;23.708;2023-05-16T03:25:17;15.57;;;6.35;;
80213;SDS011;69531;37.974;23.708;2023-05-16T03:27:42;18.25;;;5.90;;
80213;SDS011;69531;37.974;23.708;2023-05-16T03:30:08;11.70;;;5.63;;
80213;SDS011;69531;37.974;23.708;2023-05-16T03:32:36;17.95;;;6.50;;
80213;SDS011;69531;37.974;23.708;2023-05-16T03:35:02;18.15;;;6.60;;
80213;SDS011;69531;37.974;23.708;2023-05-16T03:37:28;18.50;;;6.00;;
80213;SDS011;69531;37.974;23.708;2023-05-16T03:39:54;19.55;;;7.22;;
80213;SDS011;69531;37.974;23.708;2023-05-16T03:42:20;16.52;;;7.35;;
80213;SDS011;69531;37.974;23.708;2023-05-16T03:44:45;13.85;;;5.97;;
80213;SDS011;69531;37.974;23.708;2023-05-16T03:47:11;18.48;;;7.35;;
80213;SDS011;69531;37.974;23.708;2023-05-16T03:49:37;23.20;;;6.03;;
80213;SDS011;69531;37.974;23.708;2023-05-16T03:52:03;18.25;;;6.78;;
80213;SDS011;69531;37.974;23.708;2023-05-16T03:54:29;17.48;;;6.70;;
80213;SDS011;69531;37.974;23.708;2023-05-16T03:56:55;22.73;;;6.63;;
80213;SDS011;69531;37.974;23.708;2023-05-16T03:59:21;24.35;;;5.97;;
80213;SDS011;69531;37.974;23.708;2023-05-16T04:01:47;15.98;;;6.57;;
80213;SDS011;69531;37.974;23.708;2023-05-16T04:04:14;19.30;;;7.00;;
80213;SDS011;69531;37.974;23.708;2023-05-16T04:06:39;17.23;;;6.55;;
80213;SDS011;69531;37.974;23.708;2023-05-16T04:09:05;13.20;;;5.78;;
80213;SDS011;69531;37.974;23.708;2023-05-16T04:11:31;20.05;;;7.30;;
80213;SDS011;69531;37.974;23.708;2023-05-16T04:13:58;22.02;;;7.35;;
80213;SDS011;69531;37.974;23.708;2023-05-16T04:16:25;15.60;;;6.38;;
80213;SDS011;69531;37.974;23.708;2023-05-16T04:18:51;21.35;;;7.47;;
80213;SDS011;69531;37.974;23.708;2023-05-16T04:21:17;24.63;;;6.55;;
80213;SDS011;69531;37.974;23.708;2023-05-16T04:23:43;24.45;;;7.10;;
80213;SDS011;69531;37.974;23.708;2023-05-16T04:26:08;27.85;;;7.10;;
80213;SDS011;69531;37.974;23.708;2023-05-16T04:28:34;31.50;;;7.97;;
80213;SDS011;69531;37.974;23.708;2023-05-16T04:31:00;24.83;;;6.70;;
80213;SDS011;69531;37.974;23.708;2023-05-16T04:33:26;24.38;;;7.05;;
80213;SDS011;69531;37.974;23.708;2023-05-16T04:35:52;17.88;;;6.15;;
80213;SDS011;69531;37.974;23.708;2023-05-16T04:38:18;19.77;;;5.65;;
80213;SDS011;69531;37.974;23.708;2023-05-16T04:40:45;16.63;;;6.38;;
80213;SDS011;69531;37.974;23.708;2023-05-16T04:43:10;15.25;;;6.25;;
80213;SDS011;69531;37.974;23.708;2023-05-16T04:45:36;13.55;;;5.75;;
80213;SDS011;69531;37.974;23.708;2023-05-16T04:48:02;16.63;;;5.53;;
80213;SDS011;69531;37.974;23.708;2023-05-16T04:50:28;16.85;;;5.72;;
80213;SDS011;69531;37.974;23.708;2023-05-16T04:52:53;20.60;;;6.93;;
80213;SDS011;69531;37.974;23.708;2023-05-16T04:55:19;14.80;;;5.80;;
80213;SDS011;69531;37.974;23.708;2023-05-16T04:57:45;17.60;;;6.65;;
80213;SDS011;69531;37.974;23.708;2023-05-16T05:00:11;16.63;;;6.60;;
80213;SDS011;69531;37.974;23.708;2023-05-16T05:02:37;17.50;;;6.28;;
80213;SDS011;69531;37.974;23.708;2023-05-16T05:05:04;16.33;;;6.30;;
80213;SDS011;69531;37.974;23.708;2023-05-16T05:07:31;13.60;;;5.65;;
80213;SDS011;69531;37.974;23.708;2023-05-16T05:09:57;14.80;;;6.85;;
80213;SDS011;69531;37.974;23.708;2023-05-16T05:12:23;20.15;;;7.00;;
80213;SDS011;69531;37.974;23.708;2023-05-16T05:14:49;17.65;;;6.65;;
80213;SDS011;69531;37.974;23.708;2023-05-16T05:17:16;13.95;;;6.25;;
80213;SDS011;69531;37.974;23.708;2023-05-16T05:19:42;16.73;;;6.88;;
80213;SDS011;69531;37.974;23.708;2023-05-16T05:22:07;15.63;;;6.28;;
80213;SDS011;69531;37.974;23.708;2023-05-16T05:24:33;14.20;;;6.05;;
80213;SDS011;69531;37.974;23.708;2023-05-16T05:26:59;14.38;;;5.20;;
80213;SDS011;69531;37.974;23.708;2023-05-16T05:29:24;12.68;;;5.55;;
80213;SDS011;69531;37.974;23.708;2023-05-16T05:31:50;11.77;;;5.80;;
80213;SDS011;69531;37.974;23.708;2023-05-16T05:34:16;14.40;;;5.32;;
80213;SDS011;69531;37.974;23.708;2023-05-16T05:36:42;8.38;;;4.30;;
80213;SDS011;69531;37.974;23.708;2023-05-16T05:39:08;11.90;;;4.38;;
80213;SDS011;69531;37.974;23.708;2023-05-16T05:41:34;12.90;;;4.70;;
80213;SDS011;69531;37.974;23.708;2023-05-16T05:44:00;13.88;;;4.78;;
80213;SDS011;69531;37.974;23.708;2023-05-16T05:46:25;11.05;;;4.03;;
80213;SDS011;69531;37.974;23.708;2023-05-16T05:48:51;9.60;;;4.43;;
80213;SDS011;69531;37.974;23.708;2023-05-16T05:51:17;9.25;;;3.65;;
80213;SDS011;69531;37.974;23.708;2023-05-16T05:53:43;12.13;;;3.92;;
80213;SDS011;69531;37.974;23.708;2023-05-16T05:56:09;10.35;;;3.95;;
80213;SDS011;69531;37.974;23.708;2023-05-16T05:58:34;11.90;;;4.15;;
80213;SDS011;69531;37.974;23.708;2023-05-16T06:01:00;8.13;;;3.55;;
80213;SDS011;69531;37.974;23.708;2023-05-16T06:03:26;6.80;;;3.28;;
80213;SDS011;69531;37.974;23.708;2023-05-16T06:05:52;9.65;;;3.10;;
80213;SDS011;69531;37.974;23.708;2023-05-16T06:08:18;7.50;;;3.17;;
80213;SDS011;69531;37.974;23.708;2023-05-16T06:10:43;6.03;;;3.00;;
80213;SDS011;69531;37.974;23.708;2023-05-16T06:13:09;7.97;;;3.05;;
80213;SDS011;69531;37.974;23.708;2023-05-16T06:15:35;7.40;;;2.83;;
80213;SDS011;69531;37.974;23.708;2023-05-16T06:18:01;5.80;;;2.88;;
80213;SDS011;69531;37.974;23.708;2023-05-16T06:20:27;10.55;;;3.33;;
80213;SDS011;69531;37.974;23.708;2023-05-16T06:22:52;9.65;;;3.25;;
80213;SDS011;69531;37.974;23.708;2023-05-16T06:25:18;8.07;;;3.65;;
80213;SDS011;69531;37.974;23.708;2023-05-16T06:27:44;6.90;;;3.10;;
80213;SDS011;69531;37.974;23.708;2023-05-16T06:30:10;7.60;;;3.30;;
80213;SDS011;69531;37.974;23.708;2023-05-16T06:32:36;8.23;;;3.50;;
80213;SDS011;69531;37.974;23.708;2023-05-16T06:35:01;7.07;;;3.17;;
80213;SDS011;69531;37.974;23.708;2023-05-16T06:37:27;6.68;;;2.90;;
80213;SDS011;69531;37.974;23.708;2023-05-16T06:39:53;7.53;;;2.90;;
80213;SDS011;69531;37.974;23.708;2023-05-16T06:42:19;6.15;;;3.00;;
80213;SDS011;69531;37.974;23.708;2023-05-16T06:44:45;12.95;;;3.25;;
80213;SDS011;69531;37.974;23.708;2023-05-16T06:47:11;7.90;;;2.70;;
80213;SDS011;69531;37.974;23.708;2023-05-16T06:49:36;6.38;;;2.60;;
80213;SDS011;69531;37.974;23.708;2023-05-16T06:52:03;10.05;;;3.00;;
80213;SDS011;69531;37.974;23.708;2023-05-16T06:54:29;7.57;;;2.58;;
80213;SDS011;69531;37.974;23.708;2023-05-16T06:56:56;10.02;;;3.10;;
80213;SDS011;69531;37.974;23.708;2023-05-16T06:59:21;10.77;;;3.00;;
80213;SDS011;69531;37.974;23.708;2023-05-16T07:01:47;9.95;;;2.55;;
80213;SDS011;69531;37.974;23.708;2023-05-16T07:04:13;6.65;;;2.40;;
80213;SDS011;69531;37.974;23.708;2023-05-16T07:06:39;10.68;;;3.40;;
80213;SDS011;69531;37.974;23.708;2023-05-16T07:09:05;10.73;;;3.55;;
80213;SDS011;69531;37.974;23.708;2023-05-16T07:11:32;10.80;;;2.72;;
80213;SDS011;69531;37.974;23.708;2023-05-16T07:13:58;9.40;;;3.13;;
80213;SDS011;69531;37.974;23.708;2023-05-16T07:16:23;10.25;;;2.75;;
80213;SDS011;69531;37.974;23.708;2023-05-16T07:18:52;13.57;;;3.15;;
80213;SDS011;69531;37.974;23.708;2023-05-16T07:21:18;10.80;;;3.50;;
80213;SDS011;69531;37.974;23.708;2023-05-16T07:23:44;7.53;;;2.90;;
80213;SDS011;69531;37.974;23.708;2023-05-16T07:26:09;7.25;;;2.90;;
80213;SDS011;69531;37.974;23.708;2023-05-16T07:28:35;11.27;;;3.38;;
80213;SDS011;69531;37.974;23.708;2023-05-16T07:31:01;12.10;;;2.88;;
80213;SDS011;69531;37.974;23.708;2023-05-16T07:33:26;9.57;;;3.08;;
80213;SDS011;69531;37.974;23.708;2023-05-16T07:35:52;12.13;;;3.85;;
80213;SDS011;69531;37.974;23.708;2023-05-16T07:38:19;13.05;;;3.65;;
80213;SDS011;69531;37.974;23.708;2023-05-16T07:40:45;12.20;;;3.20;;
80213;SDS011;69531;37.974;23.708;2023-05-16T07:43:11;11.27;;;3.40;;
80213;SDS011;69531;37.974;23.708;2023-05-16T07:45:37;8.75;;;3.22;;
80213;SDS011;69531;37.974;23.708;2023-05-16T07:48:03;12.60;;;3.25;;
80213;SDS011;69531;37.974;23.708;2023-05-16T07:50:28;16.20;;;4.65;;
80213;SDS011;69531;37.974;23.708;2023-05-16T07:52:54;16.13;;;4.07;;
80213;SDS011;69531;37.974;23.708;2023-05-16T07:55:20;14.57;;;3.85;;
80213;SDS011;69531;37.974;23.708;2023-05-16T07:57:46;16.13;;;3.80;;
80213;SDS011;69531;37.974;23.708;2023-05-16T08:00:13;12.32;;;3.78;;
80213;SDS011;69531;37.974;23.708;2023-05-16T08:02:39;9.20;;;3.85;;
80213;SDS011;69531;37.974;23.708;2023-05-16T08:05:05;10.00;;;3.28;;
80213;SDS011;69531;37.974;23.708;2023-05-16T08:07:31;9.55;;;2.63;;
80213;SDS011;69531;37.974;23.708;2023-05-16T08:09:57;11.68;;;3.10;;
80213;SDS011;69531;37.974;23.708;2023-05-16T08:12:23;13.35;;;3.33;;
80213;SDS011;69531;37.974;23.708;2023-05-16T08:14:51;8.68;;;3.33;;
80213;SDS011;69531;37.974;23.708;2023-05-16T08:17:16;11.75;;;3.85;;
80213;SDS011;69531;37.974;23.708;2023-05-16T08:19:43;11.40;;;3.35;;
80213;SDS011;69531;37.974;23.708;2023-05-16T08:22:08;17.75;;;3.83;;
80213;SDS011;69531;37.974;23.708;2023-05-16T08:24:34;8.60;;;2.72;;
80213;SDS011;69531;37.974;23.708;2023-05-16T08:27:00;10.07;;;3.50;;
80213;SDS011;69531;37.974;23.708;2023-05-16T08:29:26;9.75;;;2.90;;
80213;SDS011;69531;37.974;23.708;2023-05-16T08:31:51;8.30;;;3.10;;
80213;SDS011;69531;37.974;23.708;2023-05-16T08:34:17;7.60;;;2.80;;
80213;SDS011;69531;37.974;23.708;2023-05-16T08:36:43;11.43;;;3.40;;
80213;SDS011;69531;37.974;23.708;2023-05-16T08:39:08;8.88;;;3.10;;
80213;SDS011;69531;37.974;23.708;2023-05-16T08:41:37;9.20;;;3.00;;
80213;SDS011;69531;37.974;23.708;2023-05-16T08:44:03;7.20;;;2.75;;
80213;SDS011;69531;37.974;23.708;2023-05-16T08:46:30;12.52;;;2.90;;
80213;SDS011;69531;37.974;23.708;2023-05-16T08:48:59;7.90;;;2.50;;
80213;SDS011;69531;37.974;23.708;2023-05-16T08:51:30;6.93;;;3.03;;
80213;SDS011;69531;37.974;23.708;2023-05-16T08:54:05;9.73;;;3.45;;
80213;SDS011;69531;37.974;23.708;2023-05-16T08:56:35;11.60;;;3.25;;
80213;SDS011;69531;37.974;23.708;2023-05-16T08:59:02;9.38;;;2.60;;
80213;SDS011;69531;37.974;23.708;2023-05-16T09:01:29;8.85;;;2.80;;
80213;SDS011;69531;37.974;23.708;2023-05-16T09:03:59;7.65;;;2.72;;
80213;SDS011;69531;37.974;23.708;2023-05-16T09:06:25;7.35;;;2.83;;
80213;SDS011;69531;37.974;23.708;2023-05-16T09:08:54;7.57;;;3.13;;
80213;SDS011;69531;37.974;23.708;2023-05-16T09:11:20;6.78;;;2.90;;
80213;SDS011;69531;37.974;23.708;2023-05-16T09:13:46;8.25;;;2.88;;
80213;SDS011;69531;37.974;23.708;2023-05-16T09:18:40;9.60;;;3.00;;
80213;SDS011;69531;37.974;23.708;2023-05-16T09:21:08;6.43;;;3.05;;
80213;SDS011;69531;37.974;23.708;2023-05-16T09:23:36;6.47;;;2.50;;
80213;SDS011;69531;37.974;23.708;2023-05-16T09:26:02;8.15;;;2.80;;
80213;SDS011;69531;37.974;23.708;2023-05-16T09:28:36;5.57;;;2.30;;
80213;SDS011;69531;37.974;23.708;2023-05-16T09:31:03;7.18;;;2.85;;
80213;SDS011;69531;37.974;23.708;2023-05-16T09:33:43;6.65;;;2.70;;
80213;SDS011;69531;37.974;23.708;2023-05-16T09:36:08;6.93;;;2.95;;
80213;SDS011;69531;37.974;23.708;2023-05-16T09:38:34;5.05;;;2.30;;
80213;SDS011;69531;37.974;23.708;2023-05-16T09:41:01;6.68;;;2.58;;
80213;SDS011;69531;37.974;23.708;2023-05-16T09:43:27;8.50;;;2.83;;
80213;SDS011;69531;37.974;23.708;2023-05-16T09:45:53;7.85;;;2.70;;
80213;SDS011;69531;37.974;23.708;2023-05-16T09:48:23;7.47;;;2.78;;
80213;SDS011;69531;37.974;23.708;2023-05-16T09:50:52;5.22;;;2.25;;
80213;SDS011;69531;37.974;23.708;2023-05-16T09:53:31;7.43;;;2.65;;
80213;SDS011;69531;37.974;23.708;2023-05-16T09:56:04;5.72;;;2.25;;
80213;SDS011;69531;37.974;23.708;2023-05-16T09:58:32;6.93;;;2.85;;
80213;SDS011;69531;37.974;23.708;2023-05-16T10:01:00;5.78;;;2.42;;
80213;SDS011;69531;37.974;23.708;2023-05-16T10:03:26;5.80;;;2.30;;
80213;SDS011;69531;37.974;23.708;2023-05-16T10:05:53;7.45;;;2.45;;
80213;SDS011;69531;37.974;23.708;2023-05-16T10:08:23;6.80;;;2.30;;
80213;SDS011;69531;37.974;23.708;2023-05-16T10:13:20;5.78;;;2.22;;
80213;SDS011;69531;37.974;23.708;2023-05-16T10:18:14;8.00;;;2.35;;
80213;SDS011;69531;37.974;23.708;2023-05-16T10:20:42;4.43;;;2.10;;
80213;SDS011;69531;37.974;23.708;2023-05-16T10:23:12;5.45;;;2.20;;
80213;SDS011;69531;37.974;23.708;2023-05-16T10:25:44;3.97;;;2.00;;
80213;SDS011;69531;37.974;23.708;2023-05-16T10:28:11;5.95;;;2.60;;
80213;SDS011;69531;37.974;23.708;2023-05-16T10:30:41;5.40;;;2.20;;
80213;SDS011;69531;37.974;23.708;2023-05-16T10:33:16;4.60;;;2.03;;
80213;SDS011;69531;37.974;23.708;2023-05-16T10:35:43;4.75;;;1.92;;
80213;SDS011;69531;37.974;23.708;2023-05-16T10:38:10;6.72;;;2.35;;
80213;SDS011;69531;37.974;23.708;2023-05-16T10:40:38;10.95;;;2.38;;
80213;SDS011;69531;37.974;23.708;2023-05-16T10:43:06;4.35;;;1.98;;
80213;SDS011;69531;37.974;23.708;2023-05-16T10:45:33;3.70;;;2.20;;
80213;SDS011;69531;37.974;23.708;2023-05-16T10:48:04;6.15;;;2.22;;
80213;SDS011;69531;37.974;23.708;2023-05-16T10:53:30;6.72;;;2.47;;
80213;SDS011;69531;37.974;23.708;2023-05-16T10:58:24;5.68;;;1.92;;
80213;SDS011;69531;37.974;23.708;2023-05-16T11:06:24;3.72;;;2.10;;
80213;SDS011;69531;37.974;23.708;2023-05-16T11:25:03;6.50;;;2.58;;
80213;SDS011;69531;37.974;23.708;2023-05-16T11:27:30;8.93;;;2.20;;
80213;SDS011;69531;37.974;23.708;2023-05-16T11:30:11;8.45;;;2.20;;
80213;SDS011;69531;37.974;23.708;2023-05-16T11:32:45;9.98;;;3.13;;
80213;SDS011;69531;37.974;23.708;2023-05-16T11:35:17;6.47;;;2.30;;
80213;SDS011;69531;37.974;23.708;2023-05-16T11:37:43;7.63;;;2.58;;
80213;SDS011;69531;37.974;23.708;2023-05-16T11:40:11;5.05;;;2.60;;
80213;SDS011;69531;37.974;23.708;2023-05-16T11:45:15;6.72;;;2.67;;
80213;SDS011;69531;37.974;23.708;2023-05-16T11:47:43;6.53;;;3.00;;
80213;SDS011;69531;37.974;23.708;2023-05-16T11:50:13;5.72;;;2.83;;
80213;SDS011;69531;37.974;23.708;2023-05-16T11:52:43;7.05;;;2.97;;
80213;SDS011;69531;37.974;23.708;2023-05-16T11:55:18;7.13;;;2.60;;
80213;SDS011;69531;37.974;23.708;2023-05-16T11:57:51;8.50;;;3.00;;
80213;SDS011;69531;37.974;23.708;2023-05-16T12:02:45;8.10;;;2.90;;
80213;SDS011;69531;37.974;23.708;2023-05-16T12:05:12;6.55;;;2.85;;
80213;SDS011;69531;37.974;23.708;2023-05-16T12:07:39;6.28;;;2.70;;
80213;SDS011;69531;37.974;23.708;2023-05-16T12:10:09;5.93;;;3.30;;
80213;SDS011;69531;37.974;23.708;2023-05-16T12:12:36;7.43;;;2.95;;
80213;SDS011;69531;37.974;23.708;2023-05-16T12:15:04;6.55;;;2.60;;
80213;SDS011;69531;37.974;23.708;2023-05-16T12:17:35;12.88;;;3.30;;
80213;SDS011;69531;37.974;23.708;2023-05-16T12:22:31;10.30;;;3.40;;
80213;SDS011;69531;37.974;23.708;2023-05-16T12:24:58;5.75;;;2.85;;
80213;SDS011;69531;37.974;23.708;2023-05-16T12:27:24;9.85;;;3.47;;
80213;SDS011;69531;37.974;23.708;2023-05-16T12:29:51;10.13;;;3.53;;
80213;SDS011;69531;37.974;23.708;2023-05-16T12:32:17;8.48;;;3.00;;
80213;SDS011;69531;37.974;23.708;2023-05-16T12:34:50;8.75;;;3.38;;
80213;SDS011;69531;37.974;23.708;2023-05-16T12:37:17;5.70;;;3.00;;
80213;SDS011;69531;37.974;23.708;2023-05-16T12:39:43;6.38;;;2.65;;
80213;SDS011;69531;37.974;23.708;2023-05-16T12:42:12;6.55;;;3.10;;
80213;SDS011;69531;37.974;23.708;2023-05-16T12:44:38;7.45;;;3.13;;
80213;SDS011;69531;37.974;23.708;2023-05-16T12:47:11;5.28;;;2.85;;
80213;SDS011;69531;37.974;23.708;2023-05-16T12:49:43;6.75;;;2.80;;
80213;SDS011;69531;37.974;23.708;2023-05-16T12:52:11;5.80;;;2.72;;
80213;SDS011;69531;37.974;23.708;2023-05-16T12:54:44;7.38;;;3.00;;
80213;SDS011;69531;37.974;23.708;2023-05-16T12:57:10;5.53;;;2.53;;
80213;SDS011;69531;37.974;23.708;2023-05-16T12:59:35;6.28;;;2.80;;
80213;SDS011;69531;37.974;23.708;2023-05-16T13:02:01;6.53;;;2.85;;
80213;SDS011;69531;37.974;23.708;2023-05-16T13:04:28;5.88;;;2.90;;
80213;SDS011;69531;37.974;23.708;2023-05-16T13:06:54;7.00;;;3.33;;
80213;SDS011;69531;37.974;23.708;2023-05-16T13:09:21;5.70;;;3.00;;
80213;SDS011;69531;37.974;23.708;2023-05-16T13:11:47;6.55;;;3.25;;
80213;SDS011;69531;37.974;23.708;2023-05-16T13:14:14;5.50;;;2.80;;
80213;SDS011;69531;37.974;23.708;2023-05-16T13:16:41;7.07;;;3.00;;
80213;SDS011;69531;37.974;23.708;2023-05-16T13:19:07;5.40;;;2.85;;
80213;SDS011;69531;37.974;23.708;2023-05-16T13:21:33;6.38;;;2.75;;
80213;SDS011;69531;37.974;23.708;2023-05-16T13:23:59;6.72;;;2.88;;
80213;SDS011;69531;37.974;23.708;2023-05-16T13:26:25;6.60;;;2.80;;
80213;SDS011;69531;37.974;23.708;2023-05-16T13:28:51;6.53;;;2.72;;
80213;SDS011;69531;37.974;23.708;2023-05-16T13:31:19;7.22;;;2.55;;
80213;SDS011;69531;37.974;23.708;2023-05-16T13:33:46;7.07;;;2.53;;
80213;SDS011;69531;37.974;23.708;2023-05-16T13:36:12;6.22;;;2.90;;
80213;SDS011;69531;37.974;23.708;2023-05-16T13:38:37;4.75;;;2.65;;
80213;SDS011;69531;37.974;23.708;2023-05-16T13:41:03;4.35;;;2.45;;
80213;SDS011;69531;37.974;23.708;2023-05-16T13:43:29;5.80;;;2.72;;
80213;SDS011;69531;37.974;23.708;2023-05-16T13:45:54;6.82;;;3.10;;
80213;SDS011;69531;37.974;23.708;2023-05-16T13:48:21;4.78;;;2.33;;
80213;SDS011;69531;37.974;23.708;2023-05-16T13:50:46;7.88;;;3.65;;
80213;SDS011;69531;37.974;23.708;2023-05-16T13:53:12;5.65;;;2.90;;
80213;SDS011;69531;37.974;23.708;2023-05-16T13:55:38;7.95;;;3.42;;
80213;SDS011;69531;37.974;23.708;2023-05-16T13:58:04;10.75;;;3.30;;
80213;SDS011;69531;37.974;23.708;2023-05-16T14:00:29;7.55;;;3.03;;
80213;SDS011;69531;37.974;23.708;2023-05-16T14:02:55;10.32;;;3.30;;
80213;SDS011;69531;37.974;23.708;2023-05-16T14:05:21;8.90;;;3.58;;
80213;SDS011;69531;37.974;23.708;2023-05-16T14:07:47;8.95;;;4.22;;
80213;SDS011;69531;37.974;23.708;2023-05-16T14:10:13;6.25;;;3.17;;
80213;SDS011;69531;37.974;23.708;2023-05-16T14:12:38;9.05;;;3.95;;
80213;SDS011;69531;37.974;23.708;2023-05-16T14:15:04;9.73;;;4.13;;
80213;SDS011;69531;37.974;23.708;2023-05-16T14:17:31;8.77;;;3.90;;
80213;SDS011;69531;37.974;23.708;2023-05-16T14:19:57;8.70;;;4.35;;
80213;SDS011;69531;37.974;23.708;2023-05-16T14:22:22;8.27;;;3.50;;
80213;SDS011;69531;37.974;23.708;2023-05-16T14:24:48;13.70;;;4.70;;
80213;SDS011;69531;37.974;23.708;2023-05-16T14:27:14;11.80;;;3.90;;
80213;SDS011;69531;37.974;23.708;2023-05-16T14:29:41;7.70;;;3.75;;
80213;SDS011;69531;37.974;23.708;2023-05-16T14:32:08;12.70;;;4.47;;
80213;SDS011;69531;37.974;23.708;2023-05-16T14:34:35;10.38;;;4.30;;
80213;SDS011;69531;37.974;23.708;2023-05-16T14:37:00;8.95;;;3.92;;
80213;SDS011;69531;37.974;23.708;2023-05-16T14:39:26;8.57;;;3.95;;
80213;SDS011;69531;37.974;23.708;2023-05-16T14:41:52;10.65;;;3.85;;
80213;SDS011;69531;37.974;23.708;2023-05-16T14:44:18;8.80;;;3.38;;
80213;SDS011;69531;37.974;23.708;2023-05-16T14:46:45;7.97;;;3.58;;
80213;SDS011;69531;37.974;23.708;2023-05-16T14:49:11;8.25;;;3.20;;
80213;SDS011;69531;37.974;23.708;2023-05-16T14:51:37;7.30;;;3.30;;
80213;SDS011;69531;37.974;23.708;2023-05-16T14:54:02;10.55;;;3.38;;
80213;SDS011;69531;37.974;23.708;2023-05-16T14:56:29;8.25;;;3.83;;
80213;SDS011;69531;37.974;23.708;2023-05-16T14:58:56;12.13;;;4.50;;
80213;SDS011;69531;37.974;23.708;2023-05-16T15:01:21;12.73;;;4.10;;
80213;SDS011;69531;37.974;23.708;2023-05-16T15:03:47;12.95;;;4.55;;
80213;SDS011;69531;37.974;23.708;2023-05-16T15:06:13;13.25;;;4.50;;
80213;SDS011;69531;37.974;23.708;2023-05-16T15:08:39;12.85;;;4.68;;
80213;SDS011;69531;37.974;23.708;2023-05-16T15:11:04;12.48;;;4.60;;
80213;SDS011;69531;37.974;23.708;2023-05-16T15:13:30;15.77;;;4.65;;
80213;SDS011;69531;37.974;23.708;2023-05-16T15:15:56;15.90;;;5.25;;
80213;SDS011;69531;37.974;23.708;2023-05-16T15:18:22;16.33;;;4.60;;
80213;SDS011;69531;37.974;23.708;2023-05-16T15:20:48;16.70;;;4.20;;
80213;SDS011;69531;37.974;23.708;2023-05-16T15:23:16;21.63;;;4.90;;